Preview of NWS' New Version of Forecast
This preview is not operational and should not be used for support decisions.

Terminal Aerodrome Forecast (TAF)

Issued by National Weather Service (NWS)

                            
000
FTUS42 KCAE 202034 AAA
TAFOGB
TAF AMD
KOGB 202034Z 2021/2118 18007KT P6SM VCSH BKN035
      TEMPO 2022/2024 TSRA OVC030CB
     FM210200 19005KT P6SM VCSH BKN035
      TEMPO 2110/2113 4SM BR
     FM211400 23005KT P6SM SCT025 BKN100=